»·PEaware :: N172TT KLAX-KSAN

N172TT :: KLAX-KSAN

FLIGHT INFORMATION

Flight Status: Arrived
Operator: Privately registered:
United States
More flights under this callsign
Pilot: Thomas T. (19955)
Aircraft: CESSNA 172 SKYHAWK
(C172)
More flights by this aircraft type
Origin: KLAX Los Angeles Intl
United States
Destination: KSAN San Diego Intl-Lindbergh
United States
More flights between these airports :: More routes between these airports
Route: +
File this flight plan on PilotEdge
Remarks:
Altitude:
(Current/Filed)
5,500ft
Speed:
(Current/Filed)
0kts
Departed: 03-Sep-18 12:00 PM
Arrived: 03-Sep-18 01:16 PM
Distance/Time
Traveled:
95nm/1:16
Distance/Time
To Go:
Arrived

Flight Plot

Page will automatically refresh every two minutes.


Map Options




Map Legend


Flown Route
Filed Route
Departure Airport
Arrival Airport
Navaid (VOR, NDB)
Fix

Horizontal Profiles

Position Reports

Time Latitude Longitude Heading Altitude Ground
Speed
03-Sep-18 11:54 33.933722 -118.394249 89 104ft 0kts
03-Sep-18 11:55 33.933722 -118.394249 89 104ft 0kts
03-Sep-18 11:56 33.934956 -118.393408 59 102ft 12kts
03-Sep-18 11:57 33.935720 -118.386563 83 99ft 23kts
03-Sep-18 11:58 33.936300 -118.382789 8 96ft 0kts
03-Sep-18 11:59 33.936300 -118.382789 8 96ft 0kts
03-Sep-18 12:00 33.936301 -118.382789 6 96ft 0kts
03-Sep-18 12:02 33.937069 -118.385910 262 99ft 60kts
03-Sep-18 12:03 33.936152 -118.413125 268 793ft 98kts
03-Sep-18 12:04 33.935214 -118.448335 266 1498ft 108kts
03-Sep-18 12:05 33.933652 -118.484697 266 2172ft 110kts
03-Sep-18 12:06 33.932152 -118.521828 267 2771ft 111kts
03-Sep-18 12:07 33.930662 -118.558934 266 3370ft 110kts
03-Sep-18 12:08 33.928825 -118.595496 266 3967ft 109kts
03-Sep-18 12:09 33.927085 -118.631716 266 4565ft 108kts
03-Sep-18 12:10 33.925490 -118.666532 266 5147ft 106kts
03-Sep-18 12:11 33.923904 -118.703023 266 5553ft 117kts
03-Sep-18 12:12 33.922338 -118.742665 266 5558ft 119kts
03-Sep-18 12:13 33.920853 -118.782695 267 5558ft 119kts
03-Sep-18 12:14 33.919462 -118.822671 267 5558ft 119kts
03-Sep-18 12:15 33.906360 -118.852256 169 5555ft 119kts
03-Sep-18 12:16 33.883939 -118.824139 123 5558ft 119kts
03-Sep-18 12:17 33.865124 -118.790466 123 5558ft 122kts
03-Sep-18 12:18 33.845999 -118.756423 123 5558ft 122kts
03-Sep-18 12:19 33.826975 -118.722745 123 5557ft 122kts
03-Sep-18 12:20 33.807709 -118.688820 123 5557ft 122kts
03-Sep-18 12:21 33.788893 -118.654713 120 5557ft 122kts
03-Sep-18 12:22 33.771514 -118.619387 120 5556ft 123kts
03-Sep-18 12:23 33.754273 -118.584552 120 5555ft 118kts
03-Sep-18 12:24 33.737573 -118.551016 120 5553ft 116kts
03-Sep-18 12:25 33.720955 -118.517831 120 5553ft 116kts
03-Sep-18 12:26 33.704340 -118.484838 120 5553ft 116kts
03-Sep-18 12:27 33.687525 -118.451637 120 5553ft 116kts
03-Sep-18 12:28 33.670631 -118.418653 122 5552ft 116kts
03-Sep-18 12:29 33.653003 -118.386756 123 5552ft 116kts
03-Sep-18 12:30 33.635091 -118.354565 123 5552ft 116kts
03-Sep-18 12:31 33.617658 -118.323368 123 5554ft 124kts
03-Sep-18 12:32 33.597882 -118.288125 123 5554ft 128kts
03-Sep-18 12:33 33.577848 -118.252622 123 5554ft 128kts
03-Sep-18 12:34 33.557761 -118.217221 124 5553ft 128kts
03-Sep-18 12:35 33.537559 -118.181809 124 5552ft 128kts
03-Sep-18 12:36 33.517333 -118.146547 124 5551ft 128kts
03-Sep-18 12:37 33.497006 -118.111300 124 5551ft 128kts
03-Sep-18 12:38 33.475785 -118.076873 131 5548ft 128kts
03-Sep-18 12:39 33.453125 -118.043794 128 5548ft 128kts
03-Sep-18 12:40 33.430559 -118.010517 128 5547ft 128kts
03-Sep-18 12:41 33.407932 -117.977326 128 5546ft 128kts
03-Sep-18 12:42 33.385253 -117.944231 129 5546ft 128kts
03-Sep-18 12:43 33.362492 -117.911189 129 5545ft 128kts
03-Sep-18 12:44 33.339617 -117.878156 129 5544ft 128kts
03-Sep-18 12:45 33.316763 -117.845323 129 5543ft 128kts
03-Sep-18 12:46 33.293835 -117.812555 129 5542ft 128kts
03-Sep-18 12:47 33.270802 -117.779806 129 5542ft 128kts
03-Sep-18 12:48 33.247866 -117.747444 130 5229ft 125kts
03-Sep-18 12:48 33.229119 -117.721169 130 4812ft 124kts
03-Sep-18 12:50 33.203099 -117.684886 130 4233ft 124kts
03-Sep-18 12:51 33.180473 -117.653509 130 3732ft 124kts
03-Sep-18 12:51 33.162211 -117.628298 130 3544ft 113kts
03-Sep-18 12:52 33.143455 -117.602493 130 3536ft 94kts
03-Sep-18 12:54 33.123481 -117.575106 130 3536ft 96kts
03-Sep-18 12:54 33.108084 -117.555945 158 3533ft 97kts
03-Sep-18 12:55 33.086028 -117.571036 227 3527ft 97kts
03-Sep-18 12:56 33.067786 -117.594853 210 3526ft 97kts
03-Sep-18 12:58 33.041016 -117.576912 136 3317ft 110kts
03-Sep-18 12:58 33.023425 -117.554167 131 3069ft 109kts
03-Sep-18 12:59 33.004379 -117.528639 131 3064ft 99kts
03-Sep-18 13:00 32.986073 -117.504200 131 3064ft 98kts
03-Sep-18 13:01 32.967801 -117.479907 130 3063ft 98kts
03-Sep-18 13:02 32.949879 -117.455401 130 3063ft 98kts
03-Sep-18 13:03 32.930714 -117.429331 130 2779ft 108kts
03-Sep-18 13:04 32.910557 -117.402079 131 2479ft 110kts
03-Sep-18 13:05 32.890413 -117.374985 131 2181ft 110kts
03-Sep-18 13:06 32.870968 -117.348962 131 1900ft 110kts
03-Sep-18 13:07 32.851575 -117.323387 133 1848ft 100kts
03-Sep-18 13:08 32.830919 -117.298269 135 1851ft 109kts
03-Sep-18 13:09 32.808929 -117.273285 137 1851ft 109kts
03-Sep-18 13:10 32.785677 -117.248559 138 1763ft 112kts
03-Sep-18 13:11 32.762975 -117.223889 135 1762ft 110kts
03-Sep-18 13:12 32.750281 -117.193031 103 1669ft 102kts
03-Sep-18 13:13 32.743781 -117.160914 103 1458ft 88kts
03-Sep-18 13:14 32.731695 -117.144309 183 1345ft 67kts
03-Sep-18 13:15 32.727299 -117.163536 281 772ft 75kts
03-Sep-18 13:16 32.732403 -117.184506 289 15ft 44kts
03-Sep-18 13:17 32.733915 -117.188054 4 17ft 0kts
03-Sep-18 13:18 32.735139 -117.188306 189 17ft 0kts
03-Sep-18 13:19 32.735139 -117.188306 189 17ft 0kts
03-Sep-18 13:20 32.735139 -117.188306 189 17ft 0kts

Navigation Log

Ident Type
1. KLAX Airport
2. KSAN Airport